createdAt,value
2023-03-21T00:00:04.164Z,99878.72
2023-03-21T00:02:08.631Z,99877.78
2023-03-21T00:04:13.824Z,99882.50
2023-03-21T00:06:17.803Z,99877.19
2023-03-21T00:08:21.914Z,99864.03
2023-03-21T00:10:39.232Z,99864.28
2023-03-21T00:12:44.356Z,99860.22
2023-03-21T00:14:48.169Z,99863.81
2023-03-21T00:16:52.153Z,99857.81
2023-03-21T00:18:58.771Z,99857.09
2023-03-21T00:21:37.621Z,99853.72
2023-03-21T00:23:30.180Z,99842.28
2023-03-21T00:25:33.905Z,99835.31
2023-03-21T00:28:05.302Z,99833.63
2023-03-21T00:30:02.189Z,99827.72
2023-03-21T00:32:06.284Z,99826.88
2023-03-21T00:36:16.247Z,99832.06
2023-03-21T00:38:20.157Z,99825.81
2023-03-21T00:40:30.996Z,99822.63
2023-03-21T00:42:36.902Z,99829.88
2023-03-21T00:44:41.853Z,99827.22
2023-03-21T00:46:57.294Z,99825.41
2023-03-21T00:49:07.935Z,99820.75
2023-03-21T00:51:26.148Z,99812.41
2023-03-21T00:53:31.420Z,99818.41
2023-03-21T00:55:36.278Z,99809.66
2023-03-21T00:57:40.481Z,99806.03
2023-03-21T00:59:44.856Z,99797.34
2023-03-21T01:01:49.626Z,99799.44
2023-03-21T01:04:04.957Z,99803.66
2023-03-21T01:06:08.905Z,99793.75
2023-03-21T01:08:26.677Z,99794.56
2023-03-21T01:10:33.050Z,99789.19
2023-03-21T01:12:37.208Z,99789.06
2023-03-21T01:14:40.794Z,99780.97
2023-03-21T01:16:45.099Z,99778.06
2023-03-21T01:18:48.664Z,99770.13
2023-03-21T01:20:52.835Z,99765.63
2023-03-21T01:22:56.605Z,99755.19
2023-03-21T01:25:19.323Z,99745.56
2023-03-21T01:27:24.905Z,99753.63
2023-03-21T01:29:28.664Z,99742.19
2023-03-21T01:31:34.470Z,99738.56
2023-03-21T01:33:38.137Z,99739.41
2023-03-21T01:35:51.583Z,99740.25
2023-03-21T01:37:59.962Z,99737.34
2023-03-21T01:40:06.424Z,99733.63
2023-03-21T01:42:14.218Z,99729.16
2023-03-21T01:44:20.047Z,99722.16
2023-03-21T01:46:47.715Z,99724.81
2023-03-21T01:49:28.196Z,99723.97
2023-03-21T01:51:45.824Z,99715.69
2023-03-21T01:53:49.501Z,99710.06
2023-03-21T01:55:55.598Z,99712.84
2023-03-21T01:58:32.209Z,99712.84
2023-03-21T02:00:58.364Z,99710.31
2023-03-21T02:03:26.217Z,99704.38
2023-03-21T02:05:45.701Z,99695.47
2023-03-21T02:07:52.884Z,99689.47
2023-03-21T02:09:57.576Z,99693.09
2023-03-21T02:12:03.298Z,99687.53
2023-03-21T02:14:17.592Z,99682.38
2023-03-21T02:16:47.498Z,99670.06
2023-03-21T02:19:01.193Z,99660.56
2023-03-21T02:21:38.971Z,99662.88
2023-03-21T02:24:17.539Z,99650.03
2023-03-21T02:27:03.469Z,99644.13
2023-03-21T02:29:28.069Z,99647.88
2023-03-21T02:31:44.324Z,99640.66
2023-03-21T02:34:22.568Z,99632.31
2023-03-21T02:36:37.473Z,99630.28
2023-03-21T02:38:49.097Z,99625.56
2023-03-21T02:41:03.379Z,99629.88
2023-03-21T02:43:22.566Z,99631.84
2023-03-21T02:45:31.777Z,99631.75
2023-03-21T02:47:41.814Z,99628.78
2023-03-21T02:49:52.220Z,99623.63
2023-03-21T02:52:05.512Z,99614.94
2023-03-21T02:54:34.906Z,99615.06
2023-03-21T02:56:43.896Z,99606.03
2023-03-21T02:58:49.984Z,99602.91
2023-03-21T03:00:55.610Z,99601.75
2023-03-21T03:03:11.494Z,99592.13
2023-03-21T03:05:21.710Z,99591.44
2023-03-21T03:07:40.965Z,99593.94
2023-03-21T03:10:00.965Z,99590.06
2023-03-21T03:12:13.967Z,99580.91
2023-03-21T03:15:02.212Z,99584.38
2023-03-21T03:17:19.287Z,99578.41
2023-03-21T03:19:31.198Z,99571.41
2023-03-21T03:21:42.409Z,99574.19
2023-03-21T03:23:50.744Z,99573.59
2023-03-21T03:25:58.873Z,99572.91
2023-03-21T03:28:05.914Z,99571.91
2023-03-21T03:30:12.536Z,99570.94
2023-03-21T03:32:21.177Z,99562.31
2023-03-21T03:34:28.747Z,99559.91
2023-03-21T03:36:36.483Z,99561.25
2023-03-21T03:38:47.942Z,99559.00
2023-03-21T03:40:59.857Z,99551.31
2023-03-21T03:43:19.773Z,99553.22
2023-03-21T03:45:29.143Z,99546.97
2023-03-21T03:47:50.720Z,99550.97
2023-03-21T03:50:10.181Z,99538.56
2023-03-21T03:52:20.546Z,99537.47
2023-03-21T03:54:38.152Z,99531.78
2023-03-21T03:56:44.278Z,99530.56
2023-03-21T03:58:48.320Z,99528.66
2023-03-21T04:00:56.702Z,99526.47
2023-03-21T04:03:00.780Z,99517.53
2023-03-21T04:05:05.666Z,99513.94
2023-03-21T04:07:09.866Z,99507.94
2023-03-21T04:09:20.976Z,99508.63
2023-03-21T04:11:29.237Z,99512.13
2023-03-21T04:13:35.667Z,99500.56
2023-03-21T04:15:43.428Z,99501.44
2023-03-21T04:17:51.876Z,99496.97
2023-03-21T04:20:05.492Z,99485.28
2023-03-21T04:22:12.691Z,99480.56
2023-03-21T04:24:19.630Z,99483.72
2023-03-21T04:26:28.077Z,99466.28
2023-03-21T04:28:53.558Z,99480.25
2023-03-21T04:31:05.127Z,99475.66
2023-03-21T04:33:21.356Z,99476.38
2023-03-21T04:35:31.525Z,99471.06
2023-03-21T04:37:40.582Z,99473.97
2023-03-21T04:39:49.708Z,99469.66
2023-03-21T04:41:53.350Z,99467.97
2023-03-21T04:43:59.970Z,99470.63
2023-03-21T04:46:03.350Z,99474.94
2023-03-21T04:48:07.503Z,99471.44
2023-03-21T04:50:13.089Z,99467.84
2023-03-21T04:52:17.289Z,99469.66
2023-03-21T04:54:21.162Z,99465.19
2023-03-21T04:56:30.755Z,99470.34
2023-03-21T04:58:34.309Z,99473.72
2023-03-21T05:00:39.204Z,99472.72
2023-03-21T05:02:42.456Z,99472.03
2023-03-21T05:04:45.751Z,99475.78
2023-03-21T05:06:49.099Z,99471.84
2023-03-21T05:08:52.768Z,99474.03
2023-03-21T05:10:56.025Z,99474.88
2023-03-21T05:13:03.587Z,99464.28
2023-03-21T05:15:10.137Z,99468.47
2023-03-21T05:17:23.352Z,99466.41
2023-03-21T05:19:34.964Z,99464.38
2023-03-21T05:21:41.869Z,99456.03
2023-03-21T05:23:56.055Z,99454.94
2023-03-21T05:25:59.508Z,99449.38
2023-03-21T05:28:31.673Z,99457.91
2023-03-21T05:30:36.875Z,99453.44
2023-03-21T05:32:42.392Z,99458.59
2023-03-21T05:34:47.961Z,99465.69
2023-03-21T05:36:51.347Z,99468.34
2023-03-21T05:38:55.153Z,99471.97
2023-03-21T05:40:58.569Z,99468.34
2023-03-21T05:43:01.939Z,99464.75
2023-03-21T05:45:06.248Z,99464.75
2023-03-21T05:47:10.922Z,99461.22
2023-03-21T05:49:25.455Z,99466.41
2023-03-21T05:51:32.208Z,99470.88
2023-03-21T05:53:35.480Z,99478.81
2023-03-21T05:55:39.765Z,99475.47
2023-03-21T05:57:48.150Z,99467.75
2023-03-21T05:59:59.497Z,99472.50
2023-03-21T06:02:04.419Z,99478.03
2023-03-21T06:04:07.904Z,99479.03
2023-03-21T06:06:13.696Z,99474.69
2023-03-21T06:08:25.104Z,99485.53
2023-03-21T06:10:28.602Z,99480.47
2023-03-21T06:12:32.090Z,99484.81
2023-03-21T06:14:58.200Z,99490.38
2023-03-21T06:17:11.117Z,99490.50
2023-03-21T06:19:20.748Z,99491.59
2023-03-21T06:21:44.198Z,99485.72
2023-03-21T06:23:48.692Z,99496.44
2023-03-21T06:25:52.447Z,99503.28
2023-03-21T06:27:56.424Z,99507.03
2023-03-21T06:29:59.856Z,99510.50
2023-03-21T06:32:07.600Z,99512.03
2023-03-21T06:34:11.850Z,99516.38
2023-03-21T06:36:15.470Z,99516.38
2023-03-21T06:38:20.799Z,99513.75
2023-03-21T06:40:24.564Z,99524.44
2023-03-21T06:42:30.158Z,99527.22
2023-03-21T06:44:38.237Z,99525.53
2023-03-21T06:46:45.321Z,99536.13
2023-03-21T06:48:52.612Z,99540.59
2023-03-21T06:50:56.701Z,99534.44
2023-03-21T06:53:02.061Z,99538.91
2023-03-21T06:55:11.523Z,99541.28
2023-03-21T06:57:14.996Z,99542.84
2023-03-21T06:59:18.772Z,99547.88
2023-03-21T07:01:30.709Z,99547.88
2023-03-21T07:03:41.674Z,99553.03
2023-03-21T07:05:45.462Z,99554.72
2023-03-21T07:07:52.382Z,99552.69
2023-03-21T07:09:55.655Z,99554.94
2023-03-21T07:12:01.051Z,99552.75
2023-03-21T07:14:15.196Z,99551.66
2023-03-21T07:16:21.754Z,99556.00
2023-03-21T07:18:25.409Z,99562.84
2023-03-21T07:20:29.014Z,99561.72
2023-03-21T07:22:32.286Z,99568.00
2023-03-21T07:24:35.526Z,99556.56
2023-03-21T07:26:38.835Z,99560.06
2023-03-21T07:28:43.610Z,99566.06
2023-03-21T07:30:53.072Z,99571.09
2023-03-21T07:32:56.366Z,99584.09
2023-03-21T07:35:01.804Z,99587.69
2023-03-21T07:37:05.630Z,99590.47
2023-03-21T07:39:08.647Z,99589.63
2023-03-21T07:41:12.198Z,99580.72
2023-03-21T07:43:16.177Z,99587.09
2023-03-21T07:45:23.788Z,99590.63
2023-03-21T07:47:29.794Z,99590.22
2023-03-21T07:49:33.632Z,99594.75
2023-03-21T07:51:37.861Z,99610.25
2023-03-21T07:53:44.000Z,99614.59
2023-03-21T07:55:52.537Z,99618.78
2023-03-21T07:57:56.527Z,99623.94
2023-03-21T08:00:01.146Z,99624.22
2023-03-21T08:02:07.645Z,99621.09
2023-03-21T08:04:12.017Z,99638.22
2023-03-21T08:06:16.619Z,99638.81
2023-03-21T08:08:20.455Z,99636.28
2023-03-21T08:10:25.263Z,99638.38
2023-03-21T08:12:29.342Z,99639.69
2023-03-21T08:14:34.066Z,99643.25
2023-03-21T08:16:37.923Z,99634.97
2023-03-21T08:18:43.954Z,99632.38
2023-03-21T08:20:47.869Z,99616.50
2023-03-21T08:22:52.741Z,99616.38
2023-03-21T08:24:56.165Z,99616.88
2023-03-21T08:27:00.387Z,99623.56
2023-03-21T08:29:04.108Z,99608.34
2023-03-21T08:31:10.013Z,99613.88
2023-03-21T08:33:14.766Z,99609.88
2023-03-21T08:35:20.739Z,99608.53
2023-03-21T08:37:24.743Z,99617.34
2023-03-21T08:39:28.729Z,99610.97
2023-03-21T08:41:32.660Z,99625.91
2023-03-21T08:43:36.244Z,99632.19
2023-03-21T08:45:40.579Z,99626.63
2023-03-21T08:47:44.592Z,99638.53
2023-03-21T08:49:48.918Z,99629.47
2023-03-21T08:51:58.067Z,99620.94
2023-03-21T08:54:02.352Z,99626.50
2023-03-21T08:56:07.272Z,99623.13
2023-03-21T08:58:11.551Z,99634.59
2023-03-21T09:00:18.517Z,99623.44
2023-03-21T09:02:22.549Z,99616.19
2023-03-21T09:04:30.850Z,99631.94
2023-03-21T09:06:34.938Z,99637.06
2023-03-21T09:08:42.167Z,99638.03
2023-03-21T09:10:46.503Z,99635.66
2023-03-21T09:12:52.263Z,99651.03
2023-03-21T09:14:56.605Z,99655.84
2023-03-21T09:17:01.249Z,99639.41
2023-03-21T09:19:08.979Z,99642.81
2023-03-21T09:21:15.032Z,99643.28
2023-03-21T09:23:18.849Z,99651.28
2023-03-21T09:25:25.106Z,99649.22
2023-03-21T09:27:28.994Z,99634.16
2023-03-21T09:29:34.249Z,99636.50
2023-03-21T09:31:40.248Z,99636.50
2023-03-21T09:33:45.178Z,99633.09
2023-03-21T09:35:50.751Z,99642.03
2023-03-21T09:37:57.711Z,99633.59
2023-03-21T09:40:09.533Z,99640.88
2023-03-21T09:42:31.054Z,99633.19
2023-03-21T09:44:47.760Z,99633.72
2023-03-21T09:46:57.426Z,99634.69
2023-03-21T09:49:06.166Z,99637.88
2023-03-21T09:51:16.889Z,99630.16
2023-03-21T09:53:29.515Z,99640.53
2023-03-21T09:55:36.055Z,99637.16
2023-03-21T09:57:45.259Z,99630.44
2023-03-21T09:59:53.443Z,99624.00
2023-03-21T10:01:58.780Z,99620.88
2023-03-21T10:04:05.852Z,99616.69
2023-03-21T10:06:15.950Z,99622.56
2023-03-21T10:08:26.385Z,99617.56
2023-03-21T10:10:34.042Z,99619.50
2023-03-21T10:12:37.867Z,99619.13
2023-03-21T10:14:47.556Z,99613.25
2023-03-21T10:16:53.829Z,99618.72
2023-03-21T10:18:59.133Z,99616.16
2023-03-21T10:21:04.641Z,99616.94
2023-03-21T10:23:13.319Z,99616.38
2023-03-21T10:25:23.200Z,99610.19
2023-03-21T10:27:26.945Z,99615.78
2023-03-21T10:29:37.442Z,99609.69
2023-03-21T10:31:45.241Z,99612.81
2023-03-21T10:33:54.335Z,99600.53
2023-03-21T10:36:03.056Z,99616.38
2023-03-21T10:38:08.284Z,99607.22
2023-03-21T10:40:17.958Z,99607.53
2023-03-21T10:42:25.147Z,99614.88
2023-03-21T10:44:31.940Z,99611.75
2023-03-21T10:46:36.400Z,99604.44
2023-03-21T10:48:46.592Z,99603.94
2023-03-21T10:50:53.266Z,99611.56
2023-03-21T10:53:01.063Z,99613.88
2023-03-21T10:55:18.771Z,99617.56
2023-03-21T10:57:24.496Z,99608.38
2023-03-21T10:59:37.224Z,99606.75
2023-03-21T11:01:44.026Z,99604.50
2023-03-21T11:03:49.717Z,99607.75
2023-03-21T11:05:57.928Z,99609.16
2023-03-21T11:08:04.776Z,99617.31
2023-03-21T11:10:19.957Z,99624.44
2023-03-21T11:12:37.629Z,99620.47
2023-03-21T11:14:43.779Z,99618.41
2023-03-21T11:16:47.632Z,99622.19
2023-03-21T11:18:54.707Z,99622.75
2023-03-21T11:21:03.987Z,99624.63
2023-03-21T11:23:08.945Z,99633.06
2023-03-21T11:25:20.708Z,99627.25
2023-03-21T11:27:25.168Z,99630.00
2023-03-21T11:29:33.271Z,99631.94
2023-03-21T11:31:41.323Z,99629.69
2023-03-21T11:33:57.230Z,99638.22
2023-03-21T11:36:03.734Z,99636.63
2023-03-21T11:38:24.822Z,99647.63
2023-03-21T11:40:31.203Z,99630.06
2023-03-21T11:42:44.420Z,99618.47
2023-03-21T11:44:48.195Z,99616.63
2023-03-21T11:46:53.277Z,99615.44
2023-03-21T11:49:01.604Z,99626.84
2023-03-21T11:51:13.460Z,99622.13
2023-03-21T11:53:28.186Z,99610.72
2023-03-21T11:55:43.000Z,99629.03
2023-03-21T11:57:54.859Z,99635.25
2023-03-21T12:00:09.565Z,99628.63
2023-03-21T12:02:38.278Z,99627.81
2023-03-21T12:04:47.862Z,99620.00
2023-03-21T12:06:55.523Z,99619.91
2023-03-21T12:09:08.928Z,99623.84
2023-03-21T12:11:18.873Z,99634.09
2023-03-21T12:13:32.880Z,99639.56
2023-03-21T12:15:43.969Z,99634.25
2023-03-21T12:17:57.361Z,99636.75
2023-03-21T12:20:40.873Z,99617.31
2023-03-21T12:22:54.536Z,99625.44
2023-03-21T12:25:02.559Z,99624.16
2023-03-21T12:27:15.812Z,99616.84
2023-03-21T12:29:34.713Z,99619.66
2023-03-21T12:31:53.837Z,99618.84
2023-03-21T12:34:14.030Z,99619.81
2023-03-21T12:36:46.663Z,99613.09
2023-03-21T12:39:00.893Z,99613.81
2023-03-21T12:41:21.256Z,99620.09
2023-03-21T12:43:41.228Z,99618.75
2023-03-21T12:45:50.347Z,99618.09
2023-03-21T12:48:01.919Z,99619.66
2023-03-21T12:50:15.267Z,99610.31
2023-03-21T12:52:25.208Z,99601.19
2023-03-21T12:54:33.670Z,99593.94
2023-03-21T12:56:46.942Z,99600.34
2023-03-21T12:58:56.549Z,99598.66
2023-03-21T13:01:04.792Z,99602.69
2023-03-21T13:03:15.493Z,99596.97
2023-03-21T13:05:22.227Z,99604.97
2023-03-21T13:07:30.780Z,99599.41
2023-03-21T13:09:38.452Z,99602.63
2023-03-21T13:11:42.460Z,99595.06
2023-03-21T13:13:53.133Z,99589.44
2023-03-21T13:16:08.487Z,99575.31
2023-03-21T13:18:20.880Z,99569.28
2023-03-21T13:20:31.475Z,99561.84
2023-03-21T13:22:36.639Z,99553.56
2023-03-21T13:24:44.286Z,99552.00
2023-03-21T13:26:51.487Z,99560.50
2023-03-21T13:28:55.073Z,99552.75
2023-03-21T13:31:20.945Z,99540.00
2023-03-21T13:33:30.368Z,99538.41
2023-03-21T13:35:41.311Z,99535.16
2023-03-21T13:37:54.390Z,99528.25
2023-03-21T13:40:04.046Z,99512.28
2023-03-21T13:42:21.980Z,99514.63
2023-03-21T13:44:34.232Z,99504.28
2023-03-21T13:46:53.317Z,99507.81
2023-03-21T13:49:02.166Z,99509.59
2023-03-21T13:51:07.058Z,99500.50
2023-03-21T13:53:23.189Z,99495.59
2023-03-21T13:55:31.114Z,99493.97
2023-03-21T13:57:40.215Z,99490.19
2023-03-21T13:59:46.022Z,99494.69
2023-03-21T14:02:06.497Z,99481.06
2023-03-21T14:04:18.147Z,99485.09
2023-03-21T14:06:22.107Z,99475.34
2023-03-21T14:08:37.243Z,99486.91
2023-03-21T14:10:46.724Z,99482.44
2023-03-21T14:12:50.757Z,99483.41
2023-03-21T14:15:07.121Z,99461.38
2023-03-21T14:17:15.737Z,99453.31
2023-03-21T14:19:19.556Z,99453.94
2023-03-21T14:21:25.217Z,99447.09
2023-03-21T14:23:30.386Z,99440.56
2023-03-21T14:25:41.025Z,99438.72
2023-03-21T14:27:52.763Z,99427.94
2023-03-21T14:29:57.599Z,99425.72
2023-03-21T14:32:02.626Z,99415.00
2023-03-21T14:34:07.931Z,99417.28
2023-03-21T14:36:16.627Z,99410.75
2023-03-21T14:38:22.671Z,99405.88
2023-03-21T14:40:29.556Z,99391.50
2023-03-21T14:42:37.227Z,99391.25
2023-03-21T14:44:58.388Z,99385.47
2023-03-21T14:47:04.181Z,99381.06
2023-03-21T14:49:28.198Z,99372.81
2023-03-21T14:51:32.511Z,99369.63
2023-03-21T14:53:40.816Z,99362.94
2023-03-21T14:55:51.833Z,99359.59
2023-03-21T14:57:56.686Z,99355.56
2023-03-21T15:00:06.834Z,99352.34
2023-03-21T15:02:19.123Z,99336.88
2023-03-21T15:04:23.691Z,99343.47
2023-03-21T15:06:28.290Z,99337.75
2023-03-21T15:08:33.312Z,99335.38
2023-03-21T15:10:39.042Z,99331.19
2023-03-21T15:12:54.685Z,99320.03
2023-03-21T15:15:00.092Z,99315.00
2023-03-21T15:17:07.707Z,99309.16
2023-03-21T15:19:19.543Z,99302.28
2023-03-21T15:21:26.808Z,99304.94
2023-03-21T15:23:35.292Z,99302.88
2023-03-21T15:25:40.355Z,99295.34
2023-03-21T15:27:45.671Z,99308.09
2023-03-21T15:29:54.577Z,99308.50
2023-03-21T15:31:59.901Z,99292.72
2023-03-21T15:34:06.184Z,99289.38
2023-03-21T15:36:11.868Z,99288.53
2023-03-21T15:38:30.075Z,99277.38
2023-03-21T15:40:35.858Z,99276.84
2023-03-21T15:42:41.419Z,99259.38
2023-03-21T15:44:51.744Z,99245.44
2023-03-21T15:46:58.032Z,99255.06
2023-03-21T15:49:19.867Z,99236.78
2023-03-21T15:51:25.977Z,99239.56
2023-03-21T15:53:35.025Z,99234.72
2023-03-21T15:55:48.671Z,99227.56
2023-03-21T15:57:54.319Z,99228.03
2023-03-21T16:00:12.929Z,99225.53
2023-03-21T16:02:22.819Z,99225.63
2023-03-21T16:04:27.181Z,99227.47
2023-03-21T16:06:34.947Z,99216.84
2023-03-21T16:08:45.142Z,99210.72
2023-03-21T16:10:50.215Z,99193.69
2023-03-21T16:12:54.140Z,99181.69
2023-03-21T16:14:58.750Z,99176.69
2023-03-21T16:17:03.178Z,99171.69
2023-03-21T16:19:09.106Z,99169.03
2023-03-21T16:21:15.113Z,99157.72
2023-03-21T16:23:19.448Z,99157.88
2023-03-21T16:25:24.141Z,99148.22
2023-03-21T16:27:28.983Z,99153.97
2023-03-21T16:29:33.208Z,99146.31
2023-03-21T16:31:38.241Z,99135.56
2023-03-21T16:33:42.088Z,99125.41
2023-03-21T16:35:47.379Z,99122.06
2023-03-21T16:37:51.007Z,99105.31
2023-03-21T16:39:55.799Z,99105.06
2023-03-21T16:41:59.902Z,99086.81
2023-03-21T16:44:04.884Z,99095.03
2023-03-21T16:46:11.031Z,99083.75
2023-03-21T16:48:19.965Z,99080.13
2023-03-21T16:50:28.329Z,99075.78
2023-03-21T16:52:33.551Z,99058.75
2023-03-21T16:54:37.673Z,99073.66
2023-03-21T16:56:44.426Z,99057.75
2023-03-21T16:58:48.370Z,99060.41
2023-03-21T17:00:52.240Z,99053.63
2023-03-21T17:02:57.856Z,99056.94
2023-03-21T17:05:03.734Z,99051.34
2023-03-21T17:07:14.491Z,99048.41
2023-03-21T17:09:26.470Z,99051.06
2023-03-21T17:11:36.197Z,99040.31
2023-03-21T17:13:40.012Z,99042.81
2023-03-21T17:15:43.817Z,99038.31
2023-03-21T17:17:50.268Z,99032.19
2023-03-21T17:19:54.055Z,99022.41
2023-03-21T17:21:57.626Z,99018.78
2023-03-21T17:24:01.497Z,99007.06
2023-03-21T17:26:10.222Z,98993.94
2023-03-21T17:28:13.802Z,98992.94
2023-03-21T17:30:24.538Z,98987.50
2023-03-21T17:32:28.144Z,98978.56
2023-03-21T17:34:31.761Z,98985.53
2023-03-21T17:36:37.120Z,98972.13
2023-03-21T17:38:40.967Z,98966.81
2023-03-21T17:40:44.712Z,98953.56
2023-03-21T17:42:51.084Z,98950.91
2023-03-21T17:44:55.149Z,98929.03
2023-03-21T17:46:58.938Z,98936.13
2023-03-21T17:49:02.640Z,98932.66
2023-03-21T17:51:07.353Z,98924.69
2023-03-21T17:53:11.052Z,98912.25
2023-03-21T17:55:16.035Z,98907.97
2023-03-21T17:57:19.562Z,98904.47
2023-03-21T17:59:24.361Z,98892.88
2023-03-21T18:01:28.207Z,98892.06
2023-03-21T18:03:32.157Z,98896.34
2023-03-21T18:05:36.169Z,98889.41
2023-03-21T18:10:07.154Z,98883.72
2023-03-21T18:12:11.497Z,98879.69
2023-03-21T18:14:18.283Z,98874.81
2023-03-21T18:16:25.763Z,98862.72
2023-03-21T18:18:29.806Z,98867.66
2023-03-21T18:22:56.966Z,98859.63
2023-03-21T18:25:00.744Z,98843.16
2023-03-21T18:27:04.598Z,98849.59
2023-03-21T18:31:33.937Z,98832.34
2023-03-21T18:33:40.573Z,98825.50
2023-03-21T18:35:46.337Z,98828.16
2023-03-21T18:37:50.382Z,98813.41
2023-03-21T18:39:54.299Z,98816.75
2023-03-21T18:42:02.516Z,98812.56
2023-03-21T18:44:17.770Z,98807.28
2023-03-21T18:46:23.501Z,98805.44
2023-03-21T18:48:31.073Z,98801.97
2023-03-21T18:50:37.133Z,98794.84
2023-03-21T18:52:41.020Z,98788.56
2023-03-21T18:54:44.746Z,98777.16
2023-03-21T18:57:34.546Z,98774.34
2023-03-21T18:59:15.307Z,98774.34
2023-03-21T19:01:19.913Z,98767.22
2023-03-21T19:03:35.908Z,98767.91
2023-03-21T19:05:42.625Z,98754.50
2023-03-21T19:07:46.752Z,98749.06
2023-03-21T19:10:13.911Z,98755.03
2023-03-21T19:12:16.005Z,98741.63
2023-03-21T19:14:20.149Z,98728.38
2023-03-21T19:16:29.646Z,98728.22
2023-03-21T19:18:53.481Z,98719.31
2023-03-21T19:21:01.643Z,98721.09
2023-03-21T19:23:10.052Z,98718.28
2023-03-21T19:25:16.421Z,98711.19
2023-03-21T19:27:20.559Z,98705.91
2023-03-21T19:29:25.219Z,98692.47
2023-03-21T19:31:30.398Z,98688.00
2023-03-21T19:33:34.706Z,98688.97
2023-03-21T19:35:41.325Z,98696.94
2023-03-21T19:37:47.525Z,98678.53
2023-03-21T19:39:51.594Z,98676.03
2023-03-21T19:42:08.973Z,98674.38
2023-03-21T19:44:19.603Z,98669.22
2023-03-21T19:46:25.436Z,98671.38
2023-03-21T19:48:29.674Z,98665.38
2023-03-21T19:51:00.535Z,98658.41
2023-03-21T19:53:00.193Z,98656.78
2023-03-21T19:55:04.524Z,98645.31
2023-03-21T19:57:10.000Z,98640.19
2023-03-21T19:59:14.364Z,98639.22
2023-03-21T20:01:18.466Z,98633.91
2023-03-21T20:03:22.984Z,98625.97
2023-03-21T20:05:27.119Z,98626.94
2023-03-21T20:07:33.202Z,98618.16
2023-03-21T20:09:51.285Z,98615.38
2023-03-21T20:11:57.942Z,98609.09
2023-03-21T20:14:03.448Z,98596.81
2023-03-21T20:16:10.694Z,98597.78
2023-03-21T20:18:14.770Z,98594.16
2023-03-21T20:20:19.450Z,98592.34
2023-03-21T20:22:35.940Z,98563.19
2023-03-21T20:24:48.845Z,98569.34
2023-03-21T20:26:55.306Z,98560.69
2023-03-21T20:29:25.128Z,98552.59
2023-03-21T20:31:24.054Z,98548.13
2023-03-21T20:33:28.665Z,98534.03
2023-03-21T20:36:22.957Z,98537.53
2023-03-21T20:37:56.734Z,98529.59
2023-03-21T20:40:02.386Z,98517.97
2023-03-21T20:42:07.362Z,98529.09
2023-03-21T20:46:37.593Z,98496.97
2023-03-21T20:48:42.698Z,98491.53
2023-03-21T20:50:47.340Z,98514.38
2023-03-21T20:53:05.980Z,98486.56
2023-03-21T20:55:13.533Z,98496.03
2023-03-21T20:57:18.475Z,98489.59
2023-03-21T20:59:27.162Z,98488.44
2023-03-21T21:01:32.529Z,98466.91
2023-03-21T21:03:39.692Z,98457.16
2023-03-21T21:05:47.106Z,98449.84
2023-03-21T21:07:53.950Z,98452.19
2023-03-21T21:09:57.960Z,98429.34
2023-03-21T21:12:07.079Z,98429.34
2023-03-21T21:14:10.814Z,98425.66
2023-03-21T21:16:17.399Z,98414.06
2023-03-21T21:18:21.430Z,98429.00
2023-03-21T21:20:25.723Z,98431.66
2023-03-21T21:22:29.588Z,98437.78
2023-03-21T21:24:33.526Z,98435.13
2023-03-21T21:26:37.578Z,98433.31
2023-03-21T21:28:43.608Z,98417.41
2023-03-21T21:30:48.528Z,98419.91
2023-03-21T21:32:53.009Z,98406.81
2023-03-21T21:34:56.772Z,98389.06
2023-03-21T21:37:01.199Z,98368.69
2023-03-21T21:39:06.258Z,98375.66
2023-03-21T21:41:15.878Z,98381.28
2023-03-21T21:43:20.920Z,98361.88
2023-03-21T21:45:26.830Z,98367.19
2023-03-21T21:47:30.677Z,98345.97
2023-03-21T21:49:34.972Z,98347.16
2023-03-21T21:51:41.495Z,98360.25
2023-03-21T21:53:46.665Z,98352.47
2023-03-21T21:55:51.239Z,98326.94
2023-03-21T21:57:58.240Z,98333.22
2023-03-21T22:00:06.495Z,98315.66
2023-03-21T22:02:17.201Z,98306.06
2023-03-21T22:04:28.427Z,98302.75
2023-03-21T22:06:32.438Z,98290.63
2023-03-21T22:08:36.286Z,98291.78
2023-03-21T22:10:40.170Z,98278.72
2023-03-21T22:12:43.914Z,98267.59
2023-03-21T22:14:54.870Z,98264.31
2023-03-21T22:17:03.949Z,98258.19
2023-03-21T22:19:08.914Z,98267.94
2023-03-21T22:21:12.246Z,98265.97
2023-03-21T22:23:15.792Z,98255.19
2023-03-21T22:25:19.960Z,98233.47
2023-03-21T22:27:25.385Z,98242.13
2023-03-21T22:29:30.043Z,98247.41
2023-03-21T22:31:33.741Z,98241.78
2023-03-21T22:33:37.200Z,98245.09
2023-03-21T22:35:42.183Z,98225.53
2023-03-21T22:37:45.516Z,98227.53
2023-03-21T22:39:49.177Z,98254.03
2023-03-21T22:41:53.141Z,98240.78
2023-03-21T22:43:56.738Z,98237.16
2023-03-21T22:46:00.578Z,98216.94
2023-03-21T22:48:04.315Z,98209.97
2023-03-21T22:50:08.876Z,98226.03
2023-03-21T22:52:14.548Z,98235.97
2023-03-21T22:54:18.114Z,98205.31
2023-03-21T22:56:21.640Z,98194.06
2023-03-21T22:58:25.218Z,98207.66
2023-03-21T23:00:28.808Z,98192.06
2023-03-21T23:02:32.248Z,98189.75
2023-03-21T23:04:36.066Z,98189.59
2023-03-21T23:06:41.267Z,98174.53
2023-03-21T23:08:46.586Z,98169.25
2023-03-21T23:10:51.770Z,98170.06
2023-03-21T23:12:55.876Z,98154.97
2023-03-21T23:15:00.440Z,98160.28
2023-03-21T23:17:04.975Z,98152.31
2023-03-21T23:19:10.535Z,98134.81
2023-03-21T23:21:16.521Z,98136.44
2023-03-21T23:23:20.257Z,98139.06
2023-03-21T23:25:25.508Z,98158.31
2023-03-21T23:27:29.745Z,98179.34
2023-03-21T23:29:33.310Z,98164.09
2023-03-21T23:31:37.327Z,98160.59
2023-03-21T23:33:41.102Z,98159.63
2023-03-21T23:35:46.203Z,98177.34
2023-03-21T23:37:52.896Z,98183.66
2023-03-21T23:39:57.018Z,98182.78
2023-03-21T23:42:02.233Z,98190.09
2023-03-21T23:44:06.136Z,98165.25
2023-03-21T23:46:10.451Z,98149.38
2023-03-21T23:48:14.097Z,98157.16
2023-03-21T23:50:17.932Z,98135.78
2023-03-21T23:52:21.812Z,98161.28
2023-03-21T23:54:25.296Z,98156.63
2023-03-21T23:56:28.964Z,98152.00
2023-03-21T23:58:34.201Z,98173.19
